createdAt,value
2018-12-11T00:00:28.369Z,2.90
2018-12-11T00:01:28.400Z,3.00
2018-12-11T00:02:28.438Z,3.10
2018-12-11T00:03:28.476Z,3.40
2018-12-11T00:04:28.513Z,3.40
2018-12-11T00:05:28.575Z,2.30
2018-12-11T00:06:28.585Z,3.20
2018-12-11T00:07:28.620Z,3.00
2018-12-11T00:08:28.667Z,3.00
2018-12-11T00:09:28.687Z,3.20
2018-12-11T00:10:28.724Z,3.30
2018-12-11T00:11:33.910Z,3.40
2018-12-11T00:12:28.798Z,3.40
2018-12-11T00:13:28.835Z,3.30
2018-12-11T00:14:28.872Z,3.50
2018-12-11T00:15:28.901Z,3.40
2018-12-11T00:16:28.943Z,3.10
2018-12-11T00:17:29.073Z,3.50
2018-12-11T00:18:29.008Z,3.70
2018-12-11T00:19:29.044Z,3.00
2018-12-11T00:20:29.082Z,3.70
2018-12-11T00:21:29.119Z,3.40
2018-12-11T00:22:29.153Z,3.80
2018-12-11T00:23:29.191Z,3.30
2018-12-11T00:24:29.228Z,3.70
2018-12-11T00:25:29.259Z,3.50
2018-12-11T00:26:29.303Z,3.00
2018-12-11T00:27:29.334Z,3.00
2018-12-11T00:28:29.370Z,3.60
2018-12-11T00:29:29.409Z,3.20
2018-12-11T00:30:29.444Z,3.20
2018-12-11T00:31:29.575Z,3.50
2018-12-11T00:32:29.509Z,3.40
2018-12-11T00:33:29.545Z,3.20
2018-12-11T00:34:29.585Z,3.50
2018-12-11T00:35:29.617Z,3.80
2018-12-11T00:36:29.658Z,3.40
2018-12-11T00:37:29.687Z,3.10
2018-12-11T00:38:29.726Z,3.80
2018-12-11T00:39:29.762Z,3.30
2018-12-11T00:40:29.797Z,3.90
2018-12-11T00:41:29.832Z,3.70
2018-12-11T00:42:29.867Z,3.40
2018-12-11T00:43:29.912Z,3.80
2018-12-11T00:44:29.937Z,3.90
2018-12-11T00:45:29.973Z,3.80
2018-12-11T00:46:30.008Z,3.60
2018-12-11T00:47:30.052Z,4.30
2018-12-11T00:48:30.337Z,3.90
2018-12-11T00:49:30.114Z,3.30
2018-12-11T00:50:30.150Z,3.20
2018-12-11T00:51:30.195Z,3.30
2018-12-11T00:52:30.222Z,3.80
2018-12-11T00:53:30.257Z,3.60
2018-12-11T00:54:30.295Z,3.60
2018-12-11T00:55:30.431Z,8.40
2018-12-11T00:56:30.363Z,3.80
2018-12-11T00:57:30.400Z,4.80
2018-12-11T00:58:30.434Z,4.80
2018-12-11T00:59:30.472Z,6.80
2018-12-11T01:00:30.514Z,4.40
2018-12-11T01:01:30.540Z,4.30
2018-12-11T01:02:30.577Z,4.30
2018-12-11T01:03:30.612Z,5.10
2018-12-11T01:04:30.648Z,3.50
2018-12-11T01:05:30.684Z,4.30
2018-12-11T01:06:30.730Z,4.00
2018-12-11T01:07:30.844Z,4.50
2018-12-11T01:08:30.903Z,4.20
2018-12-11T01:09:30.828Z,5.00
2018-12-11T01:10:30.862Z,4.60
2018-12-11T01:11:30.902Z,3.90
2018-12-11T01:12:30.936Z,4.10
2018-12-11T01:13:30.970Z,3.80
2018-12-11T01:14:31.006Z,3.70
2018-12-11T01:15:31.051Z,4.20
2018-12-11T01:16:31.079Z,3.90
2018-12-11T01:17:31.113Z,3.70
2018-12-11T01:18:31.150Z,3.50
2018-12-11T01:19:31.186Z,4.00
2018-12-11T01:20:31.229Z,3.90
2018-12-11T01:21:31.456Z,4.00
2018-12-11T01:22:31.291Z,3.90
2018-12-11T01:23:31.330Z,3.90
2018-12-11T01:24:31.363Z,3.90
2018-12-11T01:25:31.399Z,4.00
2018-12-11T01:26:31.462Z,4.00
2018-12-11T01:27:31.471Z,4.10
2018-12-11T01:28:31.506Z,4.10
2018-12-11T01:29:31.540Z,4.30
2018-12-11T01:30:31.578Z,3.40
2018-12-11T01:31:31.613Z,4.00
2018-12-11T01:32:31.650Z,4.00
2018-12-11T01:33:31.685Z,3.90
2018-12-11T01:34:31.729Z,4.30
2018-12-11T01:35:31.758Z,3.50
2018-12-11T01:36:31.793Z,4.00
2018-12-11T01:37:31.828Z,3.90
2018-12-11T01:38:31.864Z,3.90
2018-12-11T01:39:31.966Z,3.90
2018-12-11T01:40:31.937Z,4.00
2018-12-11T01:41:31.971Z,4.20
2018-12-11T01:42:32.007Z,4.20
2018-12-11T01:43:32.043Z,3.70
2018-12-11T01:44:32.078Z,3.70
2018-12-11T01:45:32.115Z,3.80
2018-12-11T01:46:32.150Z,3.50
2018-12-11T01:47:32.185Z,3.70
2018-12-11T01:48:32.224Z,4.00
2018-12-11T01:49:32.261Z,3.80
2018-12-11T01:50:32.294Z,3.80
2018-12-11T01:51:32.329Z,3.60
2018-12-11T01:52:32.365Z,4.10
2018-12-11T01:53:32.399Z,4.00
2018-12-11T01:54:32.435Z,3.80
2018-12-11T01:55:32.472Z,4.30
2018-12-11T01:56:32.508Z,3.90
2018-12-11T01:57:32.542Z,3.20
2018-12-11T01:58:32.599Z,2.80
2018-12-11T01:59:32.614Z,3.60
2018-12-11T02:00:32.651Z,3.60
2018-12-11T02:01:32.684Z,3.10
2018-12-11T02:02:32.726Z,3.30
2018-12-11T02:03:32.761Z,3.60
2018-12-11T02:04:32.792Z,3.20
2018-12-11T02:05:32.828Z,3.30
2018-12-11T02:06:32.867Z,3.30
2018-12-11T02:07:32.901Z,3.30
2018-12-11T02:08:32.935Z,4.30
2018-12-11T02:09:32.971Z,3.80
2018-12-11T02:10:33.007Z,3.80
2018-12-11T02:11:33.041Z,3.90
2018-12-11T02:12:33.080Z,3.20
2018-12-11T02:13:33.115Z,3.40
2018-12-11T02:14:33.149Z,3.90
2018-12-11T02:15:33.196Z,3.40
2018-12-11T02:16:33.222Z,3.60
2018-12-11T02:17:33.263Z,3.70
2018-12-11T02:18:33.292Z,3.30
2018-12-11T02:19:33.327Z,3.70
2018-12-11T02:20:33.365Z,3.40
2018-12-11T02:21:33.500Z,3.80
2018-12-11T02:22:33.436Z,3.30
2018-12-11T02:23:33.581Z,3.40
2018-12-11T02:24:33.507Z,3.70
2018-12-11T02:25:33.542Z,3.80
2018-12-11T02:26:33.577Z,4.10
2018-12-11T02:27:33.614Z,3.50
2018-12-11T02:28:33.650Z,3.50
2018-12-11T02:29:33.687Z,3.90
2018-12-11T02:30:33.725Z,3.20
2018-12-11T02:31:33.762Z,3.10
2018-12-11T02:32:33.793Z,3.50
2018-12-11T02:33:33.826Z,3.70
2018-12-11T02:34:33.871Z,3.60
2018-12-11T02:35:33.904Z,3.90
2018-12-11T02:36:33.935Z,3.70
2018-12-11T02:37:33.968Z,3.80
2018-12-11T02:38:34.006Z,3.60
2018-12-11T02:39:34.042Z,3.50
2018-12-11T02:40:34.078Z,3.70
2018-12-11T02:41:34.113Z,4.00
2018-12-11T02:42:34.153Z,3.80
2018-12-11T02:43:34.185Z,3.40
2018-12-11T02:44:34.222Z,3.40
2018-12-11T02:45:34.257Z,3.90
2018-12-11T02:46:34.293Z,2.80
2018-12-11T02:47:34.328Z,3.40
2018-12-11T02:48:34.366Z,3.60
2018-12-11T02:49:34.412Z,3.70
2018-12-11T02:50:34.437Z,3.40
2018-12-11T02:51:34.479Z,3.60
2018-12-11T02:52:34.508Z,3.30
2018-12-11T02:53:34.558Z,3.30
2018-12-11T02:54:34.589Z,3.60
2018-12-11T02:55:34.619Z,3.50
2018-12-11T02:56:34.650Z,3.30
2018-12-11T02:57:34.687Z,3.30
2018-12-11T02:58:34.728Z,3.30
2018-12-11T02:59:34.757Z,3.60
2018-12-11T03:00:34.794Z,3.30
2018-12-11T03:01:34.829Z,3.30
2018-12-11T03:02:34.864Z,3.20
2018-12-11T03:03:34.900Z,3.30
2018-12-11T03:04:34.944Z,2.80
2018-12-11T03:05:34.971Z,3.00
2018-12-11T03:06:35.007Z,2.50
2018-12-11T03:07:35.045Z,2.70
2018-12-11T03:08:35.079Z,2.70
2018-12-11T03:09:35.113Z,3.10
2018-12-11T03:10:35.150Z,3.40
2018-12-11T03:11:35.195Z,2.80
2018-12-11T03:12:35.221Z,3.30
2018-12-11T03:13:35.255Z,3.30
2018-12-11T03:14:35.300Z,2.60
2018-12-11T03:15:35.332Z,3.10
2018-12-11T03:16:35.366Z,3.40
2018-12-11T03:17:35.398Z,3.60
2018-12-11T03:18:35.449Z,2.80
2018-12-11T03:19:35.471Z,3.50
2018-12-11T03:20:35.507Z,3.40
2018-12-11T03:21:35.543Z,3.30
2018-12-11T03:22:35.577Z,3.70
2018-12-11T03:23:35.614Z,2.90
2018-12-11T03:24:35.650Z,3.80
2018-12-11T03:25:35.690Z,3.30
2018-12-11T03:26:35.822Z,3.30
2018-12-11T03:27:35.768Z,3.20
2018-12-11T03:28:35.796Z,3.70
2018-12-11T03:29:35.829Z,3.60
2018-12-11T03:30:35.866Z,2.80
2018-12-11T03:31:35.954Z,3.30
2018-12-11T03:32:36.006Z,3.70
2018-12-11T03:33:36.080Z,3.40
2018-12-11T03:34:36.007Z,3.10
2018-12-11T03:35:36.141Z,3.20
2018-12-11T03:36:36.129Z,3.10
2018-12-11T03:37:36.121Z,3.40
2018-12-11T03:38:36.155Z,3.90
2018-12-11T03:39:36.187Z,3.60
2018-12-11T03:40:36.224Z,3.30
2018-12-11T03:41:36.272Z,3.80
2018-12-11T03:42:36.294Z,3.20
2018-12-11T03:43:36.329Z,3.70
2018-12-11T03:44:36.366Z,3.20
2018-12-11T03:45:36.399Z,3.30
2018-12-11T03:46:36.444Z,3.40
2018-12-11T03:47:36.472Z,3.80
2018-12-11T03:48:36.507Z,3.60
2018-12-11T03:49:36.545Z,3.40
2018-12-11T03:50:36.579Z,3.10
2018-12-11T03:51:36.619Z,3.20
2018-12-11T03:52:36.651Z,3.20
2018-12-11T03:53:36.687Z,3.40
2018-12-11T03:54:36.734Z,3.60
2018-12-11T03:55:36.759Z,3.20
2018-12-11T03:56:36.795Z,3.30
2018-12-11T03:57:36.833Z,3.50
2018-12-11T03:58:36.866Z,3.20
2018-12-11T03:59:36.903Z,3.10
2018-12-11T04:00:36.939Z,3.40
2018-12-11T04:01:36.975Z,3.10
2018-12-11T04:02:37.061Z,3.50
2018-12-11T04:03:37.046Z,3.10
2018-12-11T04:04:37.090Z,3.50
2018-12-11T04:05:37.115Z,3.20
2018-12-11T04:06:37.155Z,3.40
2018-12-11T04:07:37.189Z,3.20
2018-12-11T04:08:37.224Z,3.70
2018-12-11T04:09:37.263Z,3.20
2018-12-11T04:10:37.297Z,3.80
2018-12-11T04:11:37.331Z,3.50
2018-12-11T04:12:37.367Z,3.60
2018-12-11T04:13:37.404Z,3.20
2018-12-11T04:14:37.441Z,3.30
2018-12-11T04:15:37.475Z,3.20
2018-12-11T04:16:37.512Z,3.10
2018-12-11T04:17:37.546Z,3.50
2018-12-11T04:18:37.583Z,3.50
2018-12-11T04:19:37.619Z,3.50
2018-12-11T04:20:37.662Z,3.20
2018-12-11T04:21:37.689Z,3.40
2018-12-11T04:22:37.744Z,3.50
2018-12-11T04:23:37.762Z,3.70
2018-12-11T04:24:37.798Z,3.20
2018-12-11T04:25:37.839Z,3.40
2018-12-11T04:26:37.868Z,3.20
2018-12-11T04:27:37.903Z,2.80
2018-12-11T04:28:37.943Z,2.90
2018-12-11T04:29:37.978Z,2.90
2018-12-11T04:30:38.021Z,3.40
2018-12-11T04:31:38.048Z,3.30
2018-12-11T04:32:38.083Z,3.40
2018-12-11T04:33:38.119Z,3.70
2018-12-11T04:34:38.164Z,3.00
2018-12-11T04:35:38.193Z,3.70
2018-12-11T04:36:38.227Z,3.80
2018-12-11T04:37:38.265Z,3.60
2018-12-11T04:38:38.301Z,3.10
2018-12-11T04:39:38.350Z,3.60
2018-12-11T04:40:38.371Z,3.10
2018-12-11T04:41:38.408Z,3.70
2018-12-11T04:42:38.443Z,3.80
2018-12-11T04:43:38.481Z,3.40
2018-12-11T04:44:38.517Z,3.40
2018-12-11T04:45:38.552Z,3.60
2018-12-11T04:46:38.593Z,3.40
2018-12-11T04:47:38.631Z,3.10
2018-12-11T04:48:38.661Z,3.70
2018-12-11T04:49:38.694Z,4.00
2018-12-11T04:50:38.730Z,3.50
2018-12-11T04:51:38.767Z,3.80
2018-12-11T04:52:38.802Z,3.60
2018-12-11T04:53:38.838Z,3.50
2018-12-11T04:54:38.873Z,3.70
2018-12-11T04:55:38.910Z,3.70
2018-12-11T04:56:38.949Z,3.90
2018-12-11T04:57:38.987Z,3.70
2018-12-11T04:58:39.017Z,4.00
2018-12-11T04:59:39.054Z,2.80
2018-12-11T05:00:39.091Z,3.50
2018-12-11T05:01:39.126Z,3.80
2018-12-11T05:02:39.164Z,3.70
2018-12-11T05:03:39.202Z,3.40
2018-12-11T05:04:39.236Z,3.90
2018-12-11T05:05:39.312Z,4.00
2018-12-11T05:06:39.306Z,3.50
2018-12-11T05:07:39.344Z,3.80
2018-12-11T05:08:39.380Z,4.30
2018-12-11T05:09:39.415Z,3.70
2018-12-11T05:10:39.450Z,3.80
2018-12-11T05:11:39.487Z,3.90
2018-12-11T05:12:39.532Z,3.90
2018-12-11T05:13:39.557Z,4.00
2018-12-11T05:14:39.596Z,3.90
2018-12-11T05:15:39.629Z,4.00
2018-12-11T05:16:39.666Z,3.70
2018-12-11T05:17:39.702Z,3.40
2018-12-11T05:18:39.736Z,3.50
2018-12-11T05:19:39.776Z,3.60
2018-12-11T05:20:39.809Z,4.10
2018-12-11T05:21:39.846Z,4.10
2018-12-11T05:22:39.882Z,3.80
2018-12-11T05:23:39.920Z,3.40
2018-12-11T05:24:39.953Z,3.60
2018-12-11T05:25:39.992Z,3.90
2018-12-11T05:26:40.025Z,3.50
2018-12-11T05:27:40.060Z,4.80
2018-12-11T05:28:40.107Z,4.00
2018-12-11T05:29:40.132Z,3.60
2018-12-11T05:30:40.173Z,3.60
2018-12-11T05:31:40.205Z,3.50
2018-12-11T05:32:40.240Z,2.90
2018-12-11T05:33:40.279Z,3.40
2018-12-11T05:34:40.370Z,3.80
2018-12-11T05:35:40.349Z,3.70
2018-12-11T05:36:40.386Z,3.30
2018-12-11T05:37:40.421Z,3.90
2018-12-11T05:38:40.456Z,3.40
2018-12-11T05:39:40.491Z,3.40
2018-12-11T05:40:40.528Z,4.10
2018-12-11T05:41:40.563Z,3.50
2018-12-11T05:42:40.703Z,3.60
2018-12-11T05:43:40.636Z,4.20
2018-12-11T05:44:40.672Z,3.90
2018-12-11T05:45:40.709Z,3.50
2018-12-11T05:46:40.745Z,3.80
2018-12-11T05:47:40.781Z,4.00
2018-12-11T05:48:40.817Z,4.10
2018-12-11T05:49:40.850Z,3.80
2018-12-11T05:50:40.889Z,3.50
2018-12-11T05:51:40.923Z,3.70
2018-12-11T05:52:40.958Z,4.00
2018-12-11T05:53:40.994Z,3.70
2018-12-11T05:54:41.039Z,4.30
2018-12-11T05:55:41.070Z,3.90
2018-12-11T05:56:41.103Z,3.40
2018-12-11T05:57:41.141Z,3.80
2018-12-11T05:58:41.180Z,3.70
2018-12-11T05:59:41.212Z,3.50
2018-12-11T06:00:41.252Z,3.70
2018-12-11T06:01:41.294Z,3.80
2018-12-11T06:02:41.321Z,3.90
2018-12-11T06:03:41.367Z,3.20
2018-12-11T06:04:41.392Z,3.30
2018-12-11T06:05:41.427Z,3.50
2018-12-11T06:06:42.510Z,3.50
2018-12-11T06:07:41.510Z,4.50
2018-12-11T06:08:41.537Z,5.20
2018-12-11T06:09:41.571Z,5.00
2018-12-11T06:10:41.608Z,4.40
2018-12-11T06:11:41.646Z,4.50
2018-12-11T06:12:41.681Z,4.90
2018-12-11T06:13:41.716Z,4.60
2018-12-11T06:14:41.752Z,4.00
2018-12-11T06:15:41.789Z,3.90
2018-12-11T06:16:41.825Z,3.90
2018-12-11T06:17:41.862Z,4.30
2018-12-11T06:18:42.054Z,3.50
2018-12-11T06:19:41.944Z,3.70
2018-12-11T06:20:41.969Z,4.40
2018-12-11T06:21:42.007Z,3.90
2018-12-11T06:22:42.041Z,3.70
2018-12-11T06:23:42.080Z,3.70
2018-12-11T06:24:42.113Z,3.60
2018-12-11T06:25:42.156Z,3.30
2018-12-11T06:26:42.186Z,3.50
2018-12-11T06:27:42.224Z,3.70
2018-12-11T06:28:42.257Z,3.90
2018-12-11T06:29:42.298Z,3.80
2018-12-11T06:30:42.330Z,3.70
2018-12-11T06:31:42.365Z,3.70
2018-12-11T06:32:42.401Z,3.40
2018-12-11T06:33:42.439Z,3.50
2018-12-11T06:34:42.472Z,3.70
2018-12-11T06:35:42.514Z,3.60
2018-12-11T06:36:42.553Z,4.00
2018-12-11T06:37:42.582Z,4.40
2018-12-11T06:38:42.617Z,3.40
2018-12-11T06:39:42.653Z,3.30
2018-12-11T06:40:42.694Z,3.60
2018-12-11T06:41:42.724Z,3.30
2018-12-11T06:42:42.761Z,3.60
2018-12-11T06:43:42.799Z,4.20
2018-12-11T06:44:42.833Z,3.80
2018-12-11T06:45:42.868Z,3.20
2018-12-11T06:46:42.905Z,3.70
2018-12-11T06:47:42.950Z,3.40
2018-12-11T06:48:42.981Z,3.50
2018-12-11T06:49:43.017Z,3.40
2018-12-11T06:50:43.051Z,3.70
2018-12-11T06:51:43.087Z,3.90
2018-12-11T06:52:43.128Z,3.70
2018-12-11T06:53:43.158Z,3.80
2018-12-11T06:54:43.201Z,3.40
2018-12-11T06:55:43.232Z,3.70
2018-12-11T06:56:43.267Z,3.40
2018-12-11T06:57:43.303Z,3.70
2018-12-11T06:58:43.338Z,3.80
2018-12-11T06:59:43.373Z,3.60
2018-12-11T07:00:43.411Z,3.40
2018-12-11T07:01:43.445Z,3.70
2018-12-11T07:02:43.489Z,3.50
2018-12-11T07:03:43.519Z,3.40
2018-12-11T07:04:43.559Z,3.30
2018-12-11T07:05:43.599Z,3.20
2018-12-11T07:06:43.626Z,3.50
2018-12-11T07:07:43.662Z,3.50
2018-12-11T07:08:43.702Z,3.60
2018-12-11T07:09:43.746Z,3.90
2018-12-11T07:10:43.775Z,4.70
2018-12-11T07:11:43.809Z,4.70
2018-12-11T07:12:43.844Z,4.20
2018-12-11T07:13:43.878Z,3.60
2018-12-11T07:14:43.916Z,3.20
2018-12-11T07:15:43.952Z,3.20
2018-12-11T07:16:44.006Z,4.00
2018-12-11T07:17:44.023Z,3.70
2018-12-11T07:18:44.059Z,3.70
2018-12-11T07:19:44.096Z,3.40
2018-12-11T07:20:44.137Z,3.30
2018-12-11T07:21:44.168Z,3.80
2018-12-11T07:22:44.203Z,3.50
2018-12-11T07:23:44.239Z,3.80
2018-12-11T07:24:44.287Z,3.70
2018-12-11T07:25:44.312Z,3.40
2018-12-11T07:26:44.347Z,3.70
2018-12-11T07:27:44.391Z,3.60
2018-12-11T07:28:44.421Z,3.50
2018-12-11T07:29:44.457Z,3.70
2018-12-11T07:30:44.492Z,3.50
2018-12-11T07:31:44.527Z,3.80
2018-12-11T07:32:44.564Z,4.00
2018-12-11T07:33:50.669Z,3.80
2018-12-11T07:34:44.635Z,3.30
2018-12-11T07:35:44.671Z,3.50
2018-12-11T07:36:44.708Z,4.00
2018-12-11T07:37:44.746Z,4.10
2018-12-11T07:38:44.779Z,4.10
2018-12-11T07:39:44.816Z,4.10
2018-12-11T07:40:44.851Z,4.60
2018-12-11T07:41:44.897Z,5.10
2018-12-11T07:42:44.922Z,4.70
2018-12-11T07:43:44.960Z,4.00
2018-12-11T07:44:44.997Z,3.90
2018-12-11T07:45:45.032Z,4.30
2018-12-11T07:46:45.068Z,4.20
2018-12-11T07:47:45.107Z,3.90
2018-12-11T07:48:45.141Z,3.70
2018-12-11T07:49:45.175Z,4.20
2018-12-11T07:50:45.215Z,3.50
2018-12-11T07:51:45.251Z,3.70
2018-12-11T07:52:45.289Z,3.70
2018-12-11T07:53:45.320Z,3.90
2018-12-11T07:54:45.355Z,3.80
2018-12-11T07:55:45.397Z,3.50
2018-12-11T07:56:45.428Z,3.10
2018-12-11T07:57:45.464Z,3.50
2018-12-11T07:58:45.502Z,3.90
2018-12-11T07:59:45.536Z,3.60
2018-12-11T08:00:45.574Z,3.60
2018-12-11T08:01:45.608Z,3.70
2018-12-11T08:02:45.645Z,4.10
2018-12-11T08:03:45.686Z,4.00
2018-12-11T08:04:45.716Z,4.10
2018-12-11T08:05:45.752Z,3.50
2018-12-11T08:06:45.787Z,4.30
2018-12-11T08:07:45.823Z,4.10
2018-12-11T08:08:45.861Z,4.40
2018-12-11T08:09:45.903Z,4.00
2018-12-11T08:10:45.931Z,3.60
2018-12-11T08:11:45.975Z,3.90
2018-12-11T08:12:46.011Z,3.80
2018-12-11T08:13:46.039Z,3.40
2018-12-11T08:14:46.083Z,3.80
2018-12-11T08:15:46.111Z,4.20
2018-12-11T08:16:46.151Z,4.20
2018-12-11T08:17:46.183Z,4.30
2018-12-11T08:18:46.220Z,3.10
2018-12-11T08:19:46.257Z,3.60
2018-12-11T08:20:46.292Z,4.40
2018-12-11T08:21:46.327Z,5.10
2018-12-11T08:22:46.364Z,4.00
2018-12-11T08:23:46.399Z,4.40
2018-12-11T08:24:46.436Z,5.50
2018-12-11T08:25:46.471Z,5.80
2018-12-11T08:26:46.513Z,5.90
2018-12-11T08:27:46.550Z,5.60
2018-12-11T08:28:46.584Z,7.00
2018-12-11T08:29:46.616Z,5.90
2018-12-11T08:30:46.655Z,5.10
2018-12-11T08:31:46.699Z,5.80
2018-12-11T08:32:46.725Z,5.40
2018-12-11T08:33:46.762Z,6.60
2018-12-11T08:34:46.801Z,5.80
2018-12-11T08:35:46.835Z,6.70
2018-12-11T08:36:46.871Z,5.60
2018-12-11T08:37:46.905Z,6.00
2018-12-11T08:38:46.945Z,5.60
2018-12-11T08:39:46.978Z,5.50
2018-12-11T08:40:47.016Z,5.10
2018-12-11T08:41:47.065Z,5.90
2018-12-11T08:42:47.088Z,6.30
2018-12-11T08:43:47.124Z,4.30
2018-12-11T08:44:51.197Z,4.40
2018-12-11T08:45:47.197Z,4.40
2018-12-11T08:46:47.239Z,4.90
2018-12-11T08:47:47.269Z,5.70
2018-12-11T08:48:47.314Z,4.90
2018-12-11T08:49:47.340Z,4.70
2018-12-11T08:50:47.378Z,5.20
2018-12-11T08:51:48.316Z,4.20
2018-12-11T08:52:47.452Z,4.70
2018-12-11T08:53:47.489Z,4.10
2018-12-11T08:54:47.522Z,4.20
2018-12-11T08:55:47.559Z,4.60
2018-12-11T08:56:47.597Z,4.00
2018-12-11T08:57:47.630Z,4.10
2018-12-11T08:58:47.667Z,3.80
2018-12-11T08:59:47.718Z,4.10
2018-12-11T09:00:47.742Z,4.00
2018-12-11T09:01:47.845Z,3.80
2018-12-11T09:02:47.821Z,4.20
2018-12-11T09:03:47.850Z,3.80
2018-12-11T09:04:47.888Z,4.30
2018-12-11T09:05:47.922Z,4.40
2018-12-11T09:06:47.966Z,4.00
2018-12-11T09:07:48.001Z,3.90
2018-12-11T09:08:48.034Z,3.90
2018-12-11T09:09:48.080Z,3.10
2018-12-11T09:10:48.105Z,3.60
2018-12-11T09:11:48.139Z,3.80
2018-12-11T09:12:48.176Z,4.30
2018-12-11T09:13:48.219Z,3.10
2018-12-11T09:14:48.258Z,3.50
2018-12-11T09:15:48.285Z,3.90
2018-12-11T09:16:48.322Z,3.30
2018-12-11T09:17:48.357Z,3.50
2018-12-11T09:18:48.396Z,2.90
2018-12-11T09:19:48.438Z,3.60
2018-12-11T09:20:48.469Z,3.30
2018-12-11T09:21:48.605Z,4.00
2018-12-11T09:22:48.539Z,3.80
2018-12-11T09:23:48.577Z,3.60
2018-12-11T09:24:48.614Z,4.30
2018-12-11T09:25:48.647Z,3.70
2018-12-11T09:26:48.685Z,3.10
2018-12-11T09:27:48.730Z,3.10
2018-12-11T09:28:48.769Z,3.50
2018-12-11T09:29:48.796Z,3.90
2018-12-11T09:30:48.830Z,3.50
2018-12-11T09:31:48.865Z,3.40
2018-12-11T09:32:48.905Z,4.20
2018-12-11T09:33:48.939Z,4.00
2018-12-11T09:34:48.981Z,3.80
2018-12-11T09:35:49.016Z,3.60
2018-12-11T09:36:49.048Z,4.20
2018-12-11T09:37:49.083Z,4.10
2018-12-11T09:38:49.181Z,3.70
2018-12-11T09:39:49.156Z,4.10
2018-12-11T09:40:49.192Z,4.20
2018-12-11T09:41:49.230Z,3.50
2018-12-11T09:42:49.263Z,4.10
2018-12-11T09:43:49.305Z,4.30
2018-12-11T09:44:49.342Z,3.70
2018-12-11T09:45:49.369Z,4.50
2018-12-11T09:46:49.408Z,4.60
2018-12-11T09:47:49.441Z,5.10
2018-12-11T09:48:49.478Z,4.20
2018-12-11T09:49:49.512Z,3.80
2018-12-11T09:50:49.549Z,4.30
2018-12-11T09:51:49.586Z,4.50
2018-12-11T09:52:49.632Z,4.20
2018-12-11T09:53:49.656Z,4.60
2018-12-11T09:54:49.693Z,3.70
2018-12-11T09:55:49.729Z,3.60
2018-12-11T09:56:49.764Z,4.00
2018-12-11T09:57:49.803Z,4.10
2018-12-11T09:58:49.837Z,4.30
2018-12-11T09:59:49.881Z,4.90
2018-12-11T10:00:49.909Z,4.40
2018-12-11T10:01:49.945Z,4.00
2018-12-11T10:02:49.983Z,3.50
2018-12-11T10:03:50.017Z,3.70
2018-12-11T10:04:50.053Z,4.10
2018-12-11T10:05:50.088Z,4.40
2018-12-11T10:06:50.125Z,4.20
2018-12-11T10:07:50.161Z,4.20
2018-12-11T10:08:50.198Z,4.10
2018-12-11T10:09:50.232Z,3.80
2018-12-11T10:10:50.267Z,4.00
2018-12-11T10:11:50.304Z,4.00
2018-12-11T10:12:50.341Z,3.70
2018-12-11T10:13:50.386Z,3.20
2018-12-11T10:14:50.413Z,3.50
2018-12-11T10:15:50.448Z,3.80
2018-12-11T10:16:50.485Z,3.80
2018-12-11T10:17:50.520Z,3.70
2018-12-11T10:18:50.558Z,3.50
2018-12-11T10:19:50.599Z,3.80
2018-12-11T10:20:50.663Z,3.40
2018-12-11T10:21:50.666Z,4.00
2018-12-11T10:22:50.710Z,3.60
2018-12-11T10:23:50.738Z,3.60
2018-12-11T10:24:50.773Z,3.50
2018-12-11T10:25:50.808Z,4.00
2018-12-11T10:26:50.849Z,3.20
2018-12-11T10:27:50.882Z,4.20
2018-12-11T10:28:50.920Z,4.50
2018-12-11T10:29:50.955Z,4.50
2018-12-11T10:30:50.991Z,5.80
2018-12-11T10:31:51.030Z,4.40
2018-12-11T10:32:51.064Z,5.40
2018-12-11T10:33:51.099Z,4.60
2018-12-11T10:34:51.134Z,8.20
2018-12-11T10:35:51.171Z,12.40
2018-12-11T10:36:51.208Z,10.20
2018-12-11T10:37:51.249Z,5.40
2018-12-11T10:38:51.281Z,4.50
2018-12-11T10:39:51.317Z,4.90
2018-12-11T10:40:51.353Z,6.30
2018-12-11T10:41:51.394Z,4.70
2018-12-11T10:42:51.424Z,3.90
2018-12-11T10:43:51.462Z,4.50
2018-12-11T10:44:51.500Z,4.10
2018-12-11T10:45:51.560Z,3.90
2018-12-11T10:46:51.570Z,5.20
2018-12-11T10:47:51.605Z,4.70
2018-12-11T10:48:51.647Z,3.90
2018-12-11T10:49:51.680Z,4.40
2018-12-11T10:50:51.713Z,4.50
2018-12-11T10:51:51.758Z,4.70
2018-12-11T10:52:51.785Z,4.20
2018-12-11T10:53:51.821Z,4.50
2018-12-11T10:54:51.860Z,5.10
2018-12-11T10:55:51.902Z,4.30
2018-12-11T10:56:51.930Z,4.50
2018-12-11T10:57:51.965Z,3.70
2018-12-11T10:58:52.003Z,4.30
2018-12-11T10:59:52.039Z,4.20
2018-12-11T11:00:52.077Z,4.80
2018-12-11T11:01:52.112Z,4.80
2018-12-11T11:02:52.147Z,4.50
2018-12-11T11:03:52.183Z,4.70
2018-12-11T11:04:52.222Z,4.50
2018-12-11T11:05:52.258Z,4.80
2018-12-11T11:06:52.294Z,4.60
2018-12-11T11:07:52.344Z,5.30
2018-12-11T11:08:52.369Z,4.30
2018-12-11T11:09:52.416Z,3.90
2018-12-11T11:10:52.439Z,8.00
2018-12-11T11:11:52.475Z,4.50
2018-12-11T11:12:52.518Z,4.50
2018-12-11T11:13:52.561Z,4.20
2018-12-11T11:14:52.627Z,4.20
2018-12-11T11:15:52.671Z,4.00
2018-12-11T11:16:52.660Z,4.90
2018-12-11T11:17:52.709Z,5.20
2018-12-11T11:18:52.731Z,4.70
2018-12-11T11:19:52.775Z,4.40
2018-12-11T11:20:52.812Z,4.50
2018-12-11T11:21:52.840Z,4.50
2018-12-11T11:22:52.876Z,4.40
2018-12-11T11:23:52.913Z,3.80
2018-12-11T11:24:52.952Z,3.60
2018-12-11T11:25:52.987Z,3.80
2018-12-11T11:26:53.020Z,3.80
2018-12-11T11:27:53.064Z,4.10
2018-12-11T11:28:53.119Z,4.30
2018-12-11T11:29:53.282Z,4.40
2018-12-11T11:30:53.168Z,4.40
2018-12-11T11:31:53.214Z,4.00
2018-12-11T11:32:53.249Z,3.80
2018-12-11T11:33:56.707Z,4.00
2018-12-11T11:34:53.323Z,3.90
2018-12-11T11:35:53.352Z,4.20
2018-12-11T11:36:53.389Z,4.90
2018-12-11T11:37:53.424Z,4.10
2018-12-11T11:38:53.469Z,4.20
2018-12-11T11:39:53.499Z,4.50
2018-12-11T11:40:53.534Z,4.20
2018-12-11T11:41:53.673Z,4.70
2018-12-11T11:42:53.608Z,5.10
2018-12-11T11:43:53.650Z,5.10
2018-12-11T11:44:53.691Z,7.90
2018-12-11T11:45:53.719Z,10.30
2018-12-11T11:46:53.754Z,5.20
2018-12-11T11:47:53.791Z,4.40
2018-12-11T11:48:53.829Z,5.80
2018-12-11T11:49:53.867Z,5.90
2018-12-11T11:50:53.899Z,4.90
2018-12-11T11:51:53.936Z,5.60
2018-12-11T11:52:53.984Z,6.80
2018-12-11T11:53:54.014Z,7.40
2018-12-11T11:54:54.047Z,5.50
2018-12-11T11:55:54.082Z,4.50
2018-12-11T11:56:54.126Z,7.20
2018-12-11T11:57:54.159Z,6.10
2018-12-11T11:58:54.199Z,6.10
2018-12-11T11:59:54.227Z,5.20
2018-12-11T12:00:54.274Z,7.40
2018-12-11T12:01:54.301Z,8.50
2018-12-11T12:02:54.339Z,5.80
2018-12-11T12:03:54.374Z,8.80
2018-12-11T12:04:54.411Z,9.70
2018-12-11T12:05:54.448Z,11.60
2018-12-11T12:06:54.489Z,19.10
2018-12-11T12:07:54.524Z,5.90
2018-12-11T12:08:59.270Z,4.90
2018-12-11T12:09:54.596Z,4.80
2018-12-11T12:10:54.639Z,4.90
2018-12-11T12:11:54.675Z,4.40
2018-12-11T12:12:54.714Z,4.50
2018-12-11T12:13:54.739Z,4.20
2018-12-11T12:14:54.776Z,4.90
2018-12-11T12:15:54.823Z,5.30
2018-12-11T12:16:54.851Z,5.40
2018-12-11T12:17:54.893Z,5.10
2018-12-11T12:18:54.931Z,5.50
2018-12-11T12:19:54.968Z,5.70
2018-12-11T12:20:54.998Z,5.90
2018-12-11T12:21:55.034Z,6.40
2018-12-11T12:22:55.070Z,9.20
2018-12-11T12:23:55.117Z,6.60
2018-12-11T12:24:55.245Z,6.20
2018-12-11T12:25:55.179Z,5.30
2018-12-11T12:26:55.233Z,4.90
2018-12-11T12:27:55.263Z,4.10
2018-12-11T12:28:55.300Z,4.10
2018-12-11T12:29:55.326Z,4.20
2018-12-11T12:30:55.364Z,4.40
2018-12-11T12:31:55.400Z,4.10
2018-12-11T12:32:55.495Z,3.50
2018-12-11T12:33:55.473Z,3.50
2018-12-11T12:34:55.510Z,3.80
2018-12-11T12:35:55.547Z,4.10
2018-12-11T12:36:55.584Z,4.10
2018-12-11T12:37:55.629Z,3.70
2018-12-11T12:38:55.658Z,4.40
2018-12-11T12:39:55.695Z,4.00
2018-12-11T12:40:55.740Z,4.20
2018-12-11T12:41:55.773Z,4.50
2018-12-11T12:42:55.805Z,3.90
2018-12-11T12:43:55.845Z,3.90
2018-12-11T12:44:55.889Z,4.10
2018-12-11T12:45:55.917Z,4.60
2018-12-11T12:46:55.953Z,4.40
2018-12-11T12:47:55.990Z,4.00
2018-12-11T12:48:56.028Z,4.10
2018-12-11T12:49:56.064Z,4.30
2018-12-11T12:50:56.100Z,3.90
2018-12-11T12:51:56.140Z,3.90
2018-12-11T12:52:56.183Z,4.30
2018-12-11T12:53:56.227Z,4.70
2018-12-11T12:54:56.253Z,4.50
2018-12-11T12:55:56.286Z,4.20
2018-12-11T12:56:56.324Z,4.20
2018-12-11T12:57:56.368Z,4.20
2018-12-11T12:58:56.408Z,4.20
2018-12-11T12:59:56.445Z,4.50
2018-12-11T13:00:56.471Z,4.20
2018-12-11T13:01:56.509Z,4.40
2018-12-11T13:02:56.553Z,4.40
2018-12-11T13:03:56.581Z,4.50
2018-12-11T13:04:56.626Z,5.00
2018-12-11T13:05:56.657Z,5.10
2018-12-11T13:06:56.692Z,4.00
2018-12-11T13:07:56.729Z,3.90
2018-12-11T13:08:56.771Z,4.20
2018-12-11T13:09:56.803Z,4.80
2018-12-11T13:10:56.843Z,4.30
2018-12-11T13:11:56.878Z,4.00
2018-12-11T13:12:56.924Z,4.00
2018-12-11T13:13:56.951Z,4.60
2018-12-11T13:14:57.054Z,4.60
2018-12-11T13:15:57.036Z,6.30
2018-12-11T13:16:57.062Z,7.60
2018-12-11T13:17:57.099Z,8.80
2018-12-11T13:18:57.133Z,5.80